Aérodrome :
LOGIN :

S'inscrire | Disclaimer

   EN    FR    IT 

 










Légende :    VFR   VFR Marginal   IFR   IFR Intensif   IFR Très Intensif
Visi : 
Plafond : 
>= 8 km
>= 3000ft
5 à 8 km
1000 à 3000 ft
1500m à 5 km
500 à 1000 ft
800 à 1500m
200 à 500 ft
< 800m
< 200 ft
Symboles :   Orages  Brouillard  Fortes neiges  Fortes précipitations  Vent > 20 kt
SIGMETs :   Divers  Orages  Givrage  Turbulence  Onde Orograph.  Cendres Volcan.






- Altitude de l'aérodrome : 24 ft
- Code IATA : SGD


EKSB - Sonderborg

DERNIER METAR :
  • 141820Z AUTO 10011KT 9999NDV FEW081/// SCT120/// 12/09 Q1013

METARs EXPIRÉS :
  • 141750Z AUTO 10010KT 9999NDV BKN070/// BKN110/// 13/09 Q1013
  • 141720Z AUTO 11007KT 9999NDV SCT073/// BKN096/// BKN110/// 13/09 Q1014
  • 141650Z AUTO 11005KT 9999NDV BKN075/// BKN094/// 12/10 Q1014
  • 141620Z 11004KT CAVOK 12/10 Q1014
  • 141550Z 11004KT CAVOK 13/10 Q1014

TAF TAF EKSB
Valide du 14 à 15h jusqu'au 14 à 22h UTC


141500Z 1415/1422 09010KT 9999 FEW020
TEMPO 1416/1422 SHRA SCT060CB



MET'MAP, la Météo Aéronautique d'un coup d'oeil ! - Copyright ORBIFLY Décembre 2007 - Disclaimer

ORBIFLY MET'MAP TEAM :

Programmation & Développement : Alexandra Zaïnal
Conception & Développement : Baudouin d'Aumeries
Co-Programmation & Développement : Marc-Olivier Méhu
Soutien technique & logistique : Manuel Goepfert

Contact : metmap@orbifly.com




SOURCES & CREDITS :

   NOAA